createdAt,value
2017-12-05T00:00:06.640Z,3.40
2017-12-05T00:02:47.271Z,3.80
2017-12-05T00:05:15.714Z,3.50
2017-12-05T00:07:42.114Z,4.00
2017-12-05T00:10:09.566Z,4.37
2017-12-05T00:12:36.331Z,3.50
2017-12-05T00:15:02.840Z,3.63
2017-12-05T00:17:30.513Z,4.73
2017-12-05T00:19:56.960Z,3.63
2017-12-05T00:22:23.368Z,3.83
2017-12-05T00:24:50.524Z,3.60
2017-12-05T00:27:17.077Z,3.97
2017-12-05T00:29:43.577Z,3.77
2017-12-05T00:32:10.429Z,5.93
2017-12-05T00:34:36.908Z,4.87
2017-12-05T00:37:03.509Z,4.23
2017-12-05T00:39:30.068Z,6.93
2017-12-05T00:41:56.507Z,4.10
2017-12-05T00:44:23.048Z,4.27
2017-12-05T00:46:49.550Z,5.40
2017-12-05T00:49:16.241Z,5.20
2017-12-05T00:51:42.637Z,5.93
2017-12-05T00:54:10.799Z,5.23
2017-12-05T00:56:37.345Z,6.27
2017-12-05T00:59:04.435Z,5.70
2017-12-05T01:01:31.767Z,5.70
2017-12-05T01:03:58.300Z,6.50
2017-12-05T01:06:24.724Z,4.90
2017-12-05T01:08:51.157Z,5.33
2017-12-05T01:11:17.687Z,4.70
2017-12-05T01:13:44.281Z,5.80
2017-12-05T01:16:11.567Z,4.40
2017-12-05T01:18:38.141Z,4.60
2017-12-05T01:21:04.736Z,5.30
2017-12-05T01:23:31.267Z,5.00
2017-12-05T01:25:58.106Z,4.90
2017-12-05T01:28:24.447Z,4.20
2017-12-05T01:30:51.140Z,4.67
2017-12-05T01:33:17.695Z,3.83
2017-12-05T01:35:44.156Z,5.17
2017-12-05T01:38:10.600Z,4.67
2017-12-05T01:40:37.212Z,5.30
2017-12-05T01:43:04.047Z,4.60
2017-12-05T01:45:30.635Z,5.50
2017-12-05T01:47:57.450Z,5.10
2017-12-05T01:50:24.048Z,5.43
2017-12-05T01:52:50.602Z,5.03
2017-12-05T01:55:17.086Z,5.93
2017-12-05T01:57:43.563Z,5.60
2017-12-05T02:00:10.166Z,5.87
2017-12-05T02:02:37.256Z,4.90
2017-12-05T02:05:03.784Z,5.00
2017-12-05T02:07:30.218Z,5.17
2017-12-05T02:09:56.674Z,4.53
2017-12-05T02:12:23.886Z,5.67
2017-12-05T02:14:50.327Z,4.50
2017-12-05T02:17:39.518Z,4.27
2017-12-05T02:20:05.906Z,4.70
2017-12-05T02:22:32.411Z,5.00
2017-12-05T02:24:58.771Z,4.63
2017-12-05T02:27:25.115Z,4.60
2017-12-05T02:29:51.476Z,5.50
2017-12-05T02:32:17.913Z,4.70
2017-12-05T02:34:44.343Z,4.97
2017-12-05T02:37:10.761Z,4.77
2017-12-05T02:39:37.309Z,4.73
2017-12-05T02:42:03.827Z,4.53
2017-12-05T02:44:30.478Z,4.97
2017-12-05T02:46:56.882Z,4.00
2017-12-05T02:49:23.344Z,5.03
2017-12-05T02:51:49.882Z,4.70
2017-12-05T02:54:16.476Z,5.30
2017-12-05T02:56:44.742Z,5.70
2017-12-05T02:59:11.345Z,4.87
2017-12-05T03:01:37.836Z,5.00
2017-12-05T03:04:04.329Z,6.47
2017-12-05T03:06:30.898Z,5.90
2017-12-05T03:08:57.312Z,6.90
2017-12-05T03:11:23.798Z,7.40
2017-12-05T03:13:50.264Z,6.10
2017-12-05T03:16:16.828Z,7.87
2017-12-05T03:18:43.299Z,7.60
2017-12-05T03:21:09.740Z,7.00
2017-12-05T03:23:36.377Z,7.43
2017-12-05T03:26:03.219Z,6.33
2017-12-05T03:28:29.556Z,5.27
2017-12-05T03:30:55.977Z,4.80
2017-12-05T03:33:22.344Z,4.50
2017-12-05T03:35:49.284Z,4.73
2017-12-05T03:38:15.723Z,4.30
2017-12-05T03:40:42.194Z,4.40
2017-12-05T03:43:08.712Z,3.50
2017-12-05T03:45:35.577Z,3.40
2017-12-05T03:48:02.057Z,3.60
2017-12-05T03:50:28.474Z,3.17
2017-12-05T03:52:55.584Z,2.93
2017-12-05T03:55:21.902Z,4.10
2017-12-05T03:57:48.342Z,3.50
2017-12-05T04:00:15.590Z,5.00
2017-12-05T04:02:41.940Z,3.27
2017-12-05T04:05:08.422Z,3.33
2017-12-05T04:07:34.961Z,3.00
2017-12-05T04:10:01.350Z,3.60
2017-12-05T04:12:27.863Z,3.37
2017-12-05T04:14:54.249Z,2.53
2017-12-05T04:17:20.618Z,3.53
2017-12-05T04:19:47.048Z,3.63
2017-12-05T04:22:13.472Z,4.43
2017-12-05T04:24:40.903Z,2.80
2017-12-05T04:27:07.280Z,3.90
2017-12-05T04:29:33.710Z,3.77
2017-12-05T04:32:01.224Z,3.93
2017-12-05T04:34:27.634Z,3.57
2017-12-05T04:36:54.755Z,3.90
2017-12-05T04:39:21.133Z,4.30
2017-12-05T04:41:47.604Z,4.43
2017-12-05T04:44:14.239Z,3.77
2017-12-05T04:46:40.703Z,3.63
2017-12-05T04:49:13.153Z,2.70
2017-12-05T04:51:39.695Z,3.50
2017-12-05T04:54:06.136Z,2.40
2017-12-05T04:56:32.566Z,2.90
2017-12-05T04:58:59.203Z,3.17
2017-12-05T05:01:25.669Z,2.53
2017-12-05T05:03:52.275Z,2.03
2017-12-05T05:06:18.872Z,2.80
2017-12-05T05:08:46.436Z,2.80
2017-12-05T05:11:13.882Z,2.00
2017-12-05T05:13:40.349Z,2.47
2017-12-05T05:16:07.708Z,3.17
2017-12-05T05:18:34.839Z,2.73
2017-12-05T05:21:01.403Z,2.80
2017-12-05T05:23:28.601Z,3.67
2017-12-05T05:25:55.126Z,2.30
2017-12-05T05:28:21.660Z,2.60
2017-12-05T05:30:48.149Z,2.33
2017-12-05T05:33:14.601Z,2.10
2017-12-05T05:35:41.224Z,2.50
2017-12-05T05:38:07.986Z,2.33
2017-12-05T05:40:34.776Z,3.50
2017-12-05T05:43:01.345Z,3.43
2017-12-05T05:45:27.980Z,2.20
2017-12-05T05:47:54.456Z,2.20
2017-12-05T05:50:20.924Z,2.03
2017-12-05T05:52:48.027Z,2.60
2017-12-05T05:55:14.520Z,2.07
2017-12-05T05:57:41.389Z,2.50
2017-12-05T06:00:07.991Z,2.17
2017-12-05T06:02:34.441Z,2.03
2017-12-05T06:05:01.112Z,2.20
2017-12-05T06:07:27.845Z,1.90
2017-12-05T06:09:55.053Z,1.93
2017-12-05T06:12:28.358Z,1.97
2017-12-05T06:14:55.539Z,1.80
2017-12-05T06:17:22.413Z,2.33
2017-12-05T06:19:49.790Z,2.07
2017-12-05T06:22:16.361Z,2.80
2017-12-05T06:24:43.016Z,3.30
2017-12-05T06:27:10.460Z,2.50
2017-12-05T06:29:37.039Z,2.90
2017-12-05T06:32:03.749Z,1.80
2017-12-05T06:34:30.762Z,2.87
2017-12-05T06:36:57.186Z,2.17
2017-12-05T06:39:23.779Z,1.80
2017-12-05T06:41:50.353Z,1.97
2017-12-05T06:44:16.860Z,2.20
2017-12-05T06:46:44.618Z,2.00
2017-12-05T06:49:12.148Z,2.47
2017-12-05T06:51:38.760Z,1.80
2017-12-05T06:54:05.264Z,2.27
2017-12-05T06:56:32.488Z,2.10
2017-12-05T06:58:59.065Z,2.23
2017-12-05T07:01:25.699Z,1.77
2017-12-05T07:03:53.307Z,2.23
2017-12-05T07:06:21.351Z,2.27
2017-12-05T07:08:47.901Z,1.60
2017-12-05T07:11:15.962Z,2.50
2017-12-05T07:13:42.474Z,2.20
2017-12-05T07:16:08.856Z,1.83
2017-12-05T07:18:35.430Z,1.93
2017-12-05T07:21:03.019Z,1.47
2017-12-05T07:23:30.299Z,2.13
2017-12-05T07:25:56.913Z,2.10
2017-12-05T07:28:23.396Z,2.03
2017-12-05T07:30:49.843Z,2.27
2017-12-05T07:33:16.332Z,1.77
2017-12-05T07:35:42.883Z,1.80
2017-12-05T07:38:09.387Z,3.07
2017-12-05T07:40:36.245Z,1.50
2017-12-05T07:43:03.397Z,2.43
2017-12-05T07:45:30.836Z,1.97
2017-12-05T07:47:58.051Z,2.30
2017-12-05T07:50:24.484Z,1.43
2017-12-05T07:52:52.005Z,1.93
2017-12-05T07:58:12.278Z,1.50
2017-12-05T08:00:38.879Z,1.50
2017-12-05T08:03:05.828Z,1.87
2017-12-05T08:05:33.220Z,1.80
2017-12-05T08:07:59.652Z,1.73
2017-12-05T08:10:26.107Z,2.13
2017-12-05T08:12:52.584Z,2.03
2017-12-05T08:15:19.066Z,2.20
2017-12-05T08:17:45.809Z,1.57
2017-12-05T08:20:12.308Z,2.27
2017-12-05T08:22:38.899Z,1.80
2017-12-05T08:25:05.545Z,1.83
2017-12-05T08:27:32.961Z,2.23
2017-12-05T08:29:59.403Z,1.70
2017-12-05T08:32:26.954Z,2.17
2017-12-05T08:34:53.447Z,2.43
2017-12-05T08:37:20.980Z,2.00
2017-12-05T08:39:47.395Z,2.40
2017-12-05T08:42:14.013Z,2.30
2017-12-05T08:44:40.452Z,2.23
2017-12-05T08:47:06.920Z,2.07
2017-12-05T08:49:33.338Z,2.40
2017-12-05T08:52:00.585Z,1.93
2017-12-05T08:54:27.078Z,1.63
2017-12-05T08:56:53.648Z,2.20
2017-12-05T08:59:20.105Z,1.50
2017-12-05T09:01:46.532Z,1.93
2017-12-05T09:04:13.145Z,3.00
2017-12-05T09:06:40.535Z,2.50
2017-12-05T09:09:07.880Z,2.13
2017-12-05T09:11:34.776Z,2.00
2017-12-05T09:14:01.270Z,2.00
2017-12-05T09:16:27.689Z,1.70
2017-12-05T09:18:54.313Z,1.67
2017-12-05T09:21:27.650Z,1.40
2017-12-05T09:23:54.127Z,1.90
2017-12-05T09:26:20.636Z,2.40
2017-12-05T09:28:47.104Z,2.30
2017-12-05T09:31:13.614Z,2.10
2017-12-05T09:33:40.128Z,2.47
2017-12-05T09:36:06.674Z,2.23
2017-12-05T09:38:33.255Z,1.87
2017-12-05T09:40:59.776Z,2.00
2017-12-05T09:43:26.363Z,3.17
2017-12-05T09:45:52.805Z,2.30
2017-12-05T09:48:20.267Z,1.93
2017-12-05T09:50:46.880Z,1.70
2017-12-05T09:53:13.474Z,2.40
2017-12-05T09:55:40.053Z,2.17
2017-12-05T09:58:06.465Z,2.17
2017-12-05T10:00:32.979Z,2.17
2017-12-05T10:02:59.385Z,2.00
2017-12-05T10:05:26.600Z,2.57
2017-12-05T10:07:53.099Z,2.53
2017-12-05T10:10:19.775Z,2.40
2017-12-05T10:12:46.259Z,2.50
2017-12-05T10:15:12.787Z,1.67
2017-12-05T10:17:39.209Z,1.90
2017-12-05T10:20:05.685Z,2.10
2017-12-05T10:22:32.257Z,2.10
2017-12-05T10:24:58.734Z,2.73
2017-12-05T10:27:25.208Z,2.10
2017-12-05T10:29:51.696Z,1.57
2017-12-05T10:32:18.186Z,2.73
2017-12-05T10:34:44.820Z,2.03
2017-12-05T10:37:11.407Z,3.50
2017-12-05T10:39:38.027Z,2.27
2017-12-05T10:42:04.570Z,2.70
2017-12-05T10:44:31.168Z,2.47
2017-12-05T10:46:57.595Z,4.07
2017-12-05T10:49:24.126Z,3.17
2017-12-05T10:51:50.645Z,2.00
2017-12-05T10:54:17.145Z,2.50
2017-12-05T10:56:43.668Z,1.83
2017-12-05T10:59:10.189Z,1.90
2017-12-05T11:01:36.686Z,2.60
2017-12-05T11:04:03.378Z,3.33
2017-12-05T11:06:30.810Z,1.90
2017-12-05T11:08:57.426Z,2.50
2017-12-05T11:11:24.122Z,2.20
2017-12-05T11:13:50.626Z,2.20
2017-12-05T11:16:17.090Z,1.67
2017-12-05T11:18:43.522Z,2.87
2017-12-05T11:21:10.221Z,2.60
2017-12-05T11:23:36.712Z,1.20
2017-12-05T11:26:03.273Z,2.43
2017-12-05T11:28:29.729Z,1.93
2017-12-05T11:30:57.091Z,1.93
2017-12-05T11:33:23.517Z,2.10
2017-12-05T11:35:50.456Z,2.20
2017-12-05T11:38:16.997Z,2.10
2017-12-05T11:40:43.646Z,1.40
2017-12-05T11:43:10.574Z,2.10
2017-12-05T11:45:37.095Z,1.57
2017-12-05T11:48:03.609Z,1.60
2017-12-05T11:50:30.134Z,1.67
2017-12-05T11:52:56.709Z,2.10
2017-12-05T11:55:23.252Z,1.90
2017-12-05T11:57:49.920Z,1.73
2017-12-05T12:00:16.412Z,1.97
2017-12-05T12:02:42.947Z,1.77
2017-12-05T12:05:09.359Z,2.17
2017-12-05T12:07:35.861Z,2.00
2017-12-05T12:10:02.471Z,1.47
2017-12-05T12:12:28.912Z,2.23
2017-12-05T12:14:55.315Z,2.60
2017-12-05T12:17:21.719Z,2.80
2017-12-05T12:19:48.293Z,1.73
2017-12-05T12:22:14.751Z,1.70
2017-12-05T12:24:41.273Z,2.10
2017-12-05T12:27:07.814Z,2.43
2017-12-05T12:29:34.430Z,1.43
2017-12-05T12:32:00.860Z,1.43
2017-12-05T12:34:27.400Z,2.27
2017-12-05T12:36:53.965Z,1.70
2017-12-05T12:39:20.600Z,1.87
2017-12-05T12:41:48.063Z,2.17
2017-12-05T12:44:14.560Z,1.80
2017-12-05T12:46:41.439Z,1.40
2017-12-05T12:49:08.215Z,2.10
2017-12-05T12:51:35.025Z,2.10
2017-12-05T12:54:01.485Z,1.77
2017-12-05T12:56:28.506Z,1.83
2017-12-05T12:58:55.434Z,1.30
2017-12-05T13:01:21.944Z,2.57
2017-12-05T13:03:48.491Z,1.70
2017-12-05T13:06:15.791Z,1.73
2017-12-05T13:08:42.339Z,1.90
2017-12-05T13:11:11.227Z,1.63
2017-12-05T13:13:38.125Z,1.57
2017-12-05T13:16:04.706Z,2.60
2017-12-05T13:18:31.301Z,2.30
2017-12-05T13:20:57.733Z,1.80
2017-12-05T13:23:24.162Z,2.67
2017-12-05T13:25:50.733Z,2.40
2017-12-05T13:28:17.200Z,1.40
2017-12-05T13:30:43.678Z,2.47
2017-12-05T13:33:10.765Z,1.90
2017-12-05T13:35:37.144Z,1.90
2017-12-05T13:38:03.565Z,2.63
2017-12-05T13:40:30.026Z,2.90
2017-12-05T13:42:57.196Z,2.40
2017-12-05T13:45:23.528Z,2.00
2017-12-05T13:47:50.000Z,1.90
2017-12-05T13:50:19.004Z,2.50
2017-12-05T13:52:45.411Z,2.37
2017-12-05T13:55:12.088Z,2.43
2017-12-05T13:57:38.470Z,2.47
2017-12-05T14:00:04.844Z,1.83
2017-12-05T14:02:31.955Z,1.90
2017-12-05T14:04:58.326Z,1.80
2017-12-05T14:07:24.719Z,2.90
2017-12-05T14:09:51.131Z,3.30
2017-12-05T14:12:17.488Z,2.30
2017-12-05T14:14:44.627Z,1.90
2017-12-05T14:17:11.284Z,2.40
2017-12-05T14:19:38.427Z,2.63
2017-12-05T14:22:05.720Z,2.37
2017-12-05T14:24:32.206Z,2.97
2017-12-05T14:26:58.550Z,2.97
2017-12-05T14:29:24.893Z,2.43
2017-12-05T14:31:51.359Z,5.07
2017-12-05T14:34:17.982Z,2.60
2017-12-05T14:36:44.482Z,2.27
2017-12-05T14:39:11.208Z,2.17
2017-12-05T14:41:37.696Z,2.10
2017-12-05T14:44:04.089Z,2.70
2017-12-05T14:46:30.555Z,3.40
2017-12-05T14:48:57.786Z,2.20
2017-12-05T14:51:24.139Z,2.70
2017-12-05T14:53:50.571Z,2.63
2017-12-05T14:56:17.021Z,3.00
2017-12-05T14:58:43.432Z,2.73
2017-12-05T15:01:09.915Z,5.60
2017-12-05T15:03:36.454Z,3.20
2017-12-05T15:06:03.641Z,2.83
2017-12-05T15:08:30.071Z,4.33
2017-12-05T15:10:56.637Z,2.47
2017-12-05T15:13:23.116Z,2.13
2017-12-05T15:15:50.114Z,2.60
2017-12-05T15:18:16.558Z,2.70
2017-12-05T15:20:42.955Z,2.37
2017-12-05T15:23:11.323Z,2.30
2017-12-05T15:25:37.738Z,2.57
2017-12-05T15:28:04.885Z,2.83
2017-12-05T15:30:34.319Z,4.30
2017-12-05T15:33:01.885Z,2.63
2017-12-05T15:35:28.479Z,2.73
2017-12-05T15:37:56.067Z,3.07
2017-12-05T15:40:23.230Z,2.80
2017-12-05T15:42:50.553Z,3.07
2017-12-05T15:45:19.015Z,2.63
2017-12-05T15:47:45.534Z,2.67
2017-12-05T15:50:12.026Z,2.77
2017-12-05T15:52:39.223Z,3.30
2017-12-05T15:55:06.723Z,4.60
2017-12-05T15:57:33.375Z,3.90
2017-12-05T16:00:00.130Z,2.83
2017-12-05T16:02:26.654Z,1.60
2017-12-05T16:04:54.621Z,1.90
2017-12-05T16:07:21.462Z,2.00
2017-12-05T16:09:47.956Z,2.40
2017-12-05T16:12:14.463Z,1.70
2017-12-05T16:14:41.000Z,1.60
2017-12-05T16:17:08.158Z,4.00
2017-12-05T16:19:35.636Z,2.70
2017-12-05T16:22:02.498Z,2.00
2017-12-05T16:24:29.296Z,1.73
2017-12-05T16:26:56.931Z,2.93
2017-12-05T16:29:23.879Z,1.70
2017-12-05T16:31:50.312Z,2.30
2017-12-05T16:34:17.001Z,2.27
2017-12-05T16:36:44.148Z,2.43
2017-12-05T16:39:12.702Z,2.73
2017-12-05T16:41:39.364Z,2.63
2017-12-05T16:44:06.240Z,1.90
2017-12-05T16:46:32.861Z,2.00
2017-12-05T16:48:59.488Z,2.90
2017-12-05T16:51:25.975Z,2.93
2017-12-05T16:53:52.503Z,3.77
2017-12-05T16:56:19.293Z,2.50
2017-12-05T16:58:45.874Z,2.40
2017-12-05T17:01:12.313Z,2.40
2017-12-05T17:03:38.935Z,3.37
2017-12-05T17:06:05.559Z,2.20
2017-12-05T17:08:31.930Z,3.23
2017-12-05T17:10:58.290Z,2.83
2017-12-05T17:13:24.692Z,2.50
2017-12-05T17:15:51.823Z,1.70
2017-12-05T17:18:18.253Z,2.90
2017-12-05T17:20:44.931Z,2.97
2017-12-05T17:23:11.380Z,2.90
2017-12-05T17:25:38.048Z,3.40
2017-12-05T17:28:05.424Z,2.37
2017-12-05T17:30:31.837Z,2.30
2017-12-05T17:32:58.359Z,2.73
2017-12-05T17:35:24.921Z,2.47
2017-12-05T17:37:51.751Z,2.60
2017-12-05T17:40:18.837Z,1.80
2017-12-05T17:42:45.324Z,2.47
2017-12-05T17:45:11.783Z,3.20
2017-12-05T17:47:38.343Z,2.20
2017-12-05T17:50:04.880Z,2.43
2017-12-05T17:52:31.850Z,2.97
2017-12-05T17:54:58.455Z,2.40
2017-12-05T17:57:24.947Z,2.83
2017-12-05T17:59:51.420Z,2.50
2017-12-05T18:02:17.995Z,2.20
2017-12-05T18:04:46.377Z,2.27
2017-12-05T18:07:13.729Z,2.40
2017-12-05T18:09:40.547Z,3.87
2017-12-05T18:12:07.088Z,3.00
2017-12-05T18:14:33.706Z,3.57
2017-12-05T18:17:00.134Z,3.23
2017-12-05T18:19:26.613Z,3.93
2017-12-05T18:21:53.316Z,3.67
2017-12-05T18:24:19.753Z,2.77
2017-12-05T18:26:46.358Z,2.83
2017-12-05T18:29:12.898Z,2.50
2017-12-05T18:31:40.137Z,3.50
2017-12-05T18:34:07.266Z,3.30
2017-12-05T18:36:34.080Z,3.17
2017-12-05T18:39:00.764Z,3.57
2017-12-05T18:41:27.347Z,3.17
2017-12-05T18:43:53.935Z,2.87
2017-12-05T18:46:20.397Z,2.20
2017-12-05T18:48:47.368Z,2.77
2017-12-05T18:51:13.982Z,1.60
2017-12-05T18:53:41.338Z,2.47
2017-12-05T18:56:08.385Z,2.53
2017-12-05T18:58:34.951Z,2.77
2017-12-05T19:01:01.599Z,3.03
2017-12-05T19:03:28.475Z,2.03
2017-12-05T19:05:55.678Z,3.23
2017-12-05T19:08:22.102Z,2.20
2017-12-05T19:10:48.629Z,3.17
2017-12-05T19:13:15.267Z,2.77
2017-12-05T19:15:41.862Z,2.70
2017-12-05T19:18:09.354Z,3.10
2017-12-05T19:20:36.838Z,2.80
2017-12-05T19:23:03.536Z,3.40
2017-12-05T19:25:30.234Z,1.97
2017-12-05T19:27:57.108Z,3.40
2017-12-05T19:30:23.657Z,2.23
2017-12-05T19:32:51.160Z,4.13
2017-12-05T19:35:17.682Z,2.67
2017-12-05T19:37:44.155Z,3.20
2017-12-05T19:40:10.757Z,2.63
2017-12-05T19:42:37.227Z,3.13
2017-12-05T19:45:04.539Z,3.17
2017-12-05T19:47:31.933Z,2.80
2017-12-05T19:49:58.374Z,4.03
2017-12-05T19:52:24.891Z,2.90
2017-12-05T19:54:52.072Z,3.30
2017-12-05T19:57:19.872Z,3.07
2017-12-05T19:59:47.419Z,2.50
2017-12-05T20:02:14.497Z,3.10
2017-12-05T20:04:41.917Z,2.90
2017-12-05T20:07:08.537Z,3.00
2017-12-05T20:09:35.124Z,2.80
2017-12-05T20:12:01.634Z,2.80
2017-12-05T20:14:28.087Z,2.17
2017-12-05T20:16:55.149Z,2.63
2017-12-05T20:19:21.616Z,2.43
2017-12-05T20:21:48.228Z,2.07
2017-12-05T20:24:15.050Z,1.93
2017-12-05T20:26:41.627Z,1.60
2017-12-05T20:29:08.143Z,1.60
2017-12-05T20:31:34.797Z,2.20
2017-12-05T20:34:01.549Z,1.87
2017-12-05T20:36:28.336Z,1.57
2017-12-05T20:38:54.913Z,1.77
2017-12-05T20:41:22.171Z,1.93
2017-12-05T20:43:49.523Z,1.67
2017-12-05T20:46:16.049Z,1.50
2017-12-05T20:48:42.905Z,1.40
2017-12-05T20:51:09.495Z,2.27
2017-12-05T20:53:37.295Z,1.40
2017-12-05T20:56:03.772Z,1.30
2017-12-05T20:58:30.372Z,1.30
2017-12-05T21:00:56.777Z,1.70
2017-12-05T21:03:23.185Z,1.90
2017-12-05T21:05:50.390Z,1.97
2017-12-05T21:08:17.574Z,1.77
2017-12-05T21:10:44.818Z,1.80
2017-12-05T21:13:11.348Z,1.53
2017-12-05T21:15:38.078Z,1.40
2017-12-05T21:18:04.665Z,2.27
2017-12-05T21:20:33.221Z,1.40
2017-12-05T21:23:01.137Z,1.80
2017-12-05T21:25:28.037Z,1.40
2017-12-05T21:27:54.960Z,1.27
2017-12-05T21:30:21.524Z,2.03
2017-12-05T21:32:48.127Z,2.20
2017-12-05T21:35:15.656Z,1.60
2017-12-05T21:37:42.729Z,1.93
2017-12-05T21:40:10.096Z,2.00
2017-12-05T21:42:36.803Z,2.60
2017-12-05T21:45:05.458Z,1.80
2017-12-05T21:47:32.973Z,2.10
2017-12-05T21:50:00.613Z,1.80
2017-12-05T21:52:27.091Z,2.43
2017-12-05T21:54:53.569Z,2.20
2017-12-05T21:57:21.398Z,1.60
2017-12-05T21:59:47.982Z,3.00
2017-12-05T22:02:14.593Z,2.13
2017-12-05T22:04:41.400Z,2.17
2017-12-05T22:07:09.008Z,2.00
2017-12-05T22:09:36.375Z,2.00
2017-12-05T22:12:02.994Z,1.60
2017-12-05T22:14:30.218Z,1.37
2017-12-05T22:16:56.715Z,2.37
2017-12-05T22:19:23.344Z,2.37
2017-12-05T22:21:51.699Z,2.40
2017-12-05T22:24:18.929Z,2.40
2017-12-05T22:26:46.312Z,2.67
2017-12-05T22:29:13.032Z,2.57
2017-12-05T22:31:41.379Z,2.77
2017-12-05T22:34:09.864Z,2.03
2017-12-05T22:36:36.423Z,1.80
2017-12-05T22:39:03.983Z,2.17
2017-12-05T22:41:30.800Z,2.10
2017-12-05T22:43:57.532Z,1.60
2017-12-05T22:46:24.212Z,1.67
2017-12-05T22:48:50.695Z,2.50
2017-12-05T22:51:17.218Z,2.37
2017-12-05T22:53:43.939Z,1.90
2017-12-05T22:56:10.387Z,2.60
2017-12-05T22:58:40.074Z,2.40
2017-12-05T23:01:06.611Z,2.30
2017-12-05T23:03:37.441Z,2.80
2017-12-05T23:06:04.235Z,1.83
2017-12-05T23:08:31.912Z,2.33
2017-12-05T23:10:59.369Z,2.50
2017-12-05T23:13:26.026Z,2.10
2017-12-05T23:15:53.684Z,2.10
2017-12-05T23:18:20.736Z,1.80
2017-12-05T23:20:47.382Z,2.23
2017-12-05T23:23:14.034Z,2.67
2017-12-05T23:25:41.513Z,2.33
2017-12-05T23:28:13.509Z,3.00
2017-12-05T23:30:40.859Z,3.30
2017-12-05T23:33:07.320Z,3.33
2017-12-05T23:35:34.410Z,2.30
2017-12-05T23:38:02.727Z,2.53
2017-12-05T23:40:30.123Z,3.70
2017-12-05T23:42:56.819Z,3.27
2017-12-05T23:45:24.428Z,2.83
2017-12-05T23:47:53.356Z,2.90
2017-12-05T23:50:20.639Z,2.70
2017-12-05T23:52:47.470Z,3.20
2017-12-05T23:55:14.211Z,1.90
2017-12-05T23:57:42.491Z,3.50
